Postoak, Texas
Current Conditions -  °F | °C
As of 4:35 PM on Tuesday 21 Oct 2014 (Local Time) from K0F2 Reporting Station
Clear Clear  
Wind Chill: 81°   Ceiling: Unl
Heat Index: 81°   Visibility: 10mi
Dew Point: 48°   Wind: 8mph
Humidity: 32%   Direction: 130°SE
Pressure: 30.03"   Gusts: NA
Location:  33.5529°N, 97.8448°W
Report Text: K0F2 212135Z AUTO 13007KT 10SM CLR 27/09 A3003 RMK AO2 T02710091
Loading
Personal Weather Stations






























Interactive Weather Map
Tropical Storm Tracking
New forecast layout! Learn more

10-Day Weather Forecast

Advertisements
Track Severe Weather on mobile